sensor_id;sensor_type;location;lat;lon;timestamp;pressure;altitude;pressure_sealevel;temperature;humidity
76114;BME280;64845;53.086;5.834;2022-11-20T00:00:53;101496.22;;;-0.58;72.17
76114;BME280;64845;53.086;5.834;2022-11-20T00:03:18;101494.53;;;-0.55;72.07
76114;BME280;64845;53.086;5.834;2022-11-20T00:05:44;101484.09;;;-0.53;72.17
76114;BME280;64845;53.086;5.834;2022-11-20T00:08:10;101495.50;;;-0.51;72.22
76114;BME280;64845;53.086;5.834;2022-11-20T00:10:36;101491.16;;;-0.49;72.09
76114;BME280;64845;53.086;5.834;2022-11-20T00:13:02;101487.69;;;-0.47;72.06
76114;BME280;64845;53.086;5.834;2022-11-20T00:15:27;101480.69;;;-0.46;72.35
76114;BME280;64845;53.086;5.834;2022-11-20T00:17:53;101478.97;;;-0.44;72.12
76114;BME280;64845;53.086;5.834;2022-11-20T00:20:18;101468.47;;;-0.44;72.19
76114;BME280;64845;53.086;5.834;2022-11-20T00:22:43;101468.47;;;-0.44;72.25
76114;BME280;64845;53.086;5.834;2022-11-20T00:25:09;101466.72;;;-0.45;72.26
76114;BME280;64845;53.086;5.834;2022-11-20T00:27:35;101463.22;;;-0.44;72.24
76114;BME280;64845;53.086;5.834;2022-11-20T00:30:00;101461.53;;;-0.42;72.35
76114;BME280;64845;53.086;5.834;2022-11-20T00:32:26;101454.56;;;-0.38;72.00
76114;BME280;64845;53.086;5.834;2022-11-20T00:34:51;101453.72;;;-0.37;72.01
76114;BME280;64845;53.086;5.834;2022-11-20T00:37:16;101452.00;;;-0.37;72.28
76114;BME280;64845;53.086;5.834;2022-11-20T00:39:42;101455.50;;;-0.36;72.53
76114;BME280;64845;53.086;5.834;2022-11-20T00:42:07;101456.38;;;-0.36;72.40
76114;BME280;64845;53.086;5.834;2022-11-20T00:44:33;101452.00;;;-0.37;72.29
76114;BME280;64845;53.086;5.834;2022-11-20T00:46:58;101444.13;;;-0.35;72.20
76114;BME280;64845;53.086;5.834;2022-11-20T00:49:23;101441.50;;;-0.35;72.51
76114;BME280;64845;53.086;5.834;2022-11-20T00:51:49;101453.75;;;-0.36;72.23
76114;BME280;64845;53.086;5.834;2022-11-20T00:54:14;101459.81;;;-0.38;72.39
76114;BME280;64845;53.086;5.834;2022-11-20T00:56:39;101460.72;;;-0.39;72.63
76114;BME280;64845;53.086;5.834;2022-11-20T00:59:05;101460.72;;;-0.38;72.45
76114;BME280;64845;53.086;5.834;2022-11-20T01:01:30;101454.63;;;-0.35;72.71
76114;BME280;64845;53.086;5.834;2022-11-20T01:03:58;101457.28;;;-0.34;72.50
76114;BME280;64845;53.086;5.834;2022-11-20T01:06:28;101457.25;;;-0.35;72.45
76114;BME280;64845;53.086;5.834;2022-11-20T01:08:57;101457.25;;;-0.37;72.28
76114;BME280;64845;53.086;5.834;2022-11-20T01:11:25;101455.47;;;-0.39;72.58
76114;BME280;64845;53.086;5.834;2022-11-20T01:13:52;101452.78;;;-0.42;72.45
76114;BME280;64845;53.086;5.834;2022-11-20T01:18:47;101448.44;;;-0.40;72.41
76114;BME280;64845;53.086;5.834;2022-11-20T01:21:15;101449.31;;;-0.40;72.72
76114;BME280;64845;53.086;5.834;2022-11-20T01:23:42;101451.94;;;-0.38;72.50
76114;BME280;64845;53.086;5.834;2022-11-20T01:26:28;101443.25;;;-0.36;72.61
76114;BME280;64845;53.086;5.834;2022-11-20T01:28:55;101438.88;;;-0.37;72.38
76114;BME280;64845;53.086;5.834;2022-11-20T01:31:31;101430.97;;;-0.38;72.70
76114;BME280;64845;53.086;5.834;2022-11-20T01:34:00;101436.25;;;-0.37;73.03
76114;BME280;64845;53.086;5.834;2022-11-20T01:36:29;101431.88;;;-0.36;72.76
76114;BME280;64845;53.086;5.834;2022-11-20T01:39:00;101429.31;;;-0.33;72.84
76114;BME280;64845;53.086;5.834;2022-11-20T01:41:29;101426.75;;;-0.28;72.76
76114;BME280;64845;53.086;5.834;2022-11-20T01:44:15;101428.59;;;-0.23;72.95
76114;BME280;64845;53.086;5.834;2022-11-20T01:46:50;101423.41;;;-0.18;73.15
76114;BME280;64845;53.086;5.834;2022-11-20T01:49:21;101423.47;;;-0.15;72.80
76114;BME280;64845;53.086;5.834;2022-11-20T01:51:52;101415.66;;;-0.10;72.79
76114;BME280;64845;53.086;5.834;2022-11-20T01:54:21;101413.91;;;-0.10;72.85
76114;BME280;64845;53.086;5.834;2022-11-20T01:56:51;101414.78;;;-0.11;72.91
76114;BME280;64845;53.086;5.834;2022-11-20T01:59:18;101416.53;;;-0.10;72.98
76114;BME280;64845;53.086;5.834;2022-11-20T02:01:45;101412.16;;;-0.09;72.80
76114;BME280;64845;53.086;5.834;2022-11-20T02:04:12;101404.28;;;-0.08;72.80
76114;BME280;64845;53.086;5.834;2022-11-20T02:06:48;101406.06;;;-0.07;72.90
76114;BME280;64845;53.086;5.834;2022-11-20T02:09:15;101402.63;;;-0.04;72.71
76114;BME280;64845;53.086;5.834;2022-11-20T02:11:41;101400.00;;;-0.04;72.81
76114;BME280;64845;53.086;5.834;2022-11-20T02:14:07;101407.00;;;-0.03;72.79
76114;BME280;64845;53.086;5.834;2022-11-20T02:16:36;101395.59;;;-0.04;72.77
76114;BME280;64845;53.086;5.834;2022-11-20T02:19:05;101395.56;;;-0.07;72.63
76114;BME280;64845;53.086;5.834;2022-11-20T02:21:47;101394.66;;;-0.10;72.83
76114;BME280;64845;53.086;5.834;2022-11-20T02:24:17;101400.75;;;-0.13;72.54
76114;BME280;64845;53.086;5.834;2022-11-20T02:29:23;101392.88;;;-0.13;72.57
76114;BME280;64845;53.086;5.834;2022-11-20T02:31:49;101385.81;;;-0.17;72.85
76114;BME280;64845;53.086;5.834;2022-11-20T02:34:14;101385.75;;;-0.22;72.91
76114;BME280;64845;53.086;5.834;2022-11-20T02:36:40;101388.31;;;-0.25;72.90
76114;BME280;64845;53.086;5.834;2022-11-20T02:39:09;101382.16;;;-0.25;72.81
76114;BME280;64845;53.086;5.834;2022-11-20T02:41:37;101395.28;;;-0.25;72.59
76114;BME280;64845;53.086;5.834;2022-11-20T02:44:04;101392.72;;;-0.24;72.84
76114;BME280;64845;53.086;5.834;2022-11-20T02:46:30;101386.56;;;-0.24;72.55
76114;BME280;64845;53.086;5.834;2022-11-20T02:48:56;101391.84;;;-0.23;72.74
76114;BME280;64845;53.086;5.834;2022-11-20T02:51:21;101384.84;;;-0.24;72.66
76114;BME280;64845;53.086;5.834;2022-11-20T02:53:47;101376.97;;;-0.24;72.78
76114;BME280;64845;53.086;5.834;2022-11-20T02:56:12;101376.13;;;-0.21;72.72
76114;BME280;64845;53.086;5.834;2022-11-20T02:58:38;101366.53;;;-0.21;72.69
76114;BME280;64845;53.086;5.834;2022-11-20T03:01:03;101362.13;;;-0.22;72.82
76114;BME280;64845;53.086;5.834;2022-11-20T03:03:29;101365.63;;;-0.23;72.75
76114;BME280;64845;53.086;5.834;2022-11-20T03:05:54;101371.72;;;-0.22;72.77
76114;BME280;64845;53.086;5.834;2022-11-20T03:08:19;101362.13;;;-0.22;72.80
76114;BME280;64845;53.086;5.834;2022-11-20T03:10:45;101363.81;;;-0.25;72.89
76114;BME280;64845;53.086;5.834;2022-11-20T03:13:10;101357.63;;;-0.31;72.91
76114;BME280;64845;53.086;5.834;2022-11-20T03:15:36;101373.28;;;-0.35;72.93
76114;BME280;64845;53.086;5.834;2022-11-20T03:18:02;101366.25;;;-0.38;72.90
76114;BME280;64845;53.086;5.834;2022-11-20T03:20:28;101354.84;;;-0.40;72.72
76114;BME280;64845;53.086;5.834;2022-11-20T03:22:54;101349.56;;;-0.43;72.71
76114;BME280;64845;53.086;5.834;2022-11-20T03:25:21;101351.28;;;-0.47;73.06
76114;BME280;64845;53.086;5.834;2022-11-20T03:27:46;101346.88;;;-0.48;72.82
76114;BME280;64845;53.086;5.834;2022-11-20T03:30:12;101348.59;;;-0.48;73.01
76114;BME280;64845;53.086;5.834;2022-11-20T03:32:38;101345.09;;;-0.50;72.84
76114;BME280;64845;53.086;5.834;2022-11-20T03:35:03;101338.03;;;-0.54;72.77
76114;BME280;64845;53.086;5.834;2022-11-20T03:37:29;101349.41;;;-0.55;72.98
76114;BME280;64845;53.086;5.834;2022-11-20T03:39:54;101338.03;;;-0.54;72.83
76114;BME280;64845;53.086;5.834;2022-11-20T03:42:19;101339.84;;;-0.50;72.95
76114;BME280;64845;53.086;5.834;2022-11-20T03:45:04;101333.75;;;-0.49;73.02
76114;BME280;64845;53.086;5.834;2022-11-20T03:47:29;101325.78;;;-0.54;73.11
76114;BME280;64845;53.086;5.834;2022-11-20T03:49:55;101321.41;;;-0.55;72.96
76114;BME280;64845;53.086;5.834;2022-11-20T03:52:20;101318.78;;;-0.56;72.95
76114;BME280;64845;53.086;5.834;2022-11-20T03:54:45;101305.66;;;-0.55;72.89
76114;BME280;64845;53.086;5.834;2022-11-20T03:57:11;101306.53;;;-0.56;73.29
76114;BME280;64845;53.086;5.834;2022-11-20T03:59:36;101303.00;;;-0.58;73.39
76114;BME280;64845;53.086;5.834;2022-11-20T04:02:01;101310.81;;;-0.63;73.25
76114;BME280;64845;53.086;5.834;2022-11-20T04:04:27;101303.72;;;-0.68;73.21
76114;BME280;64845;53.086;5.834;2022-11-20T04:06:52;101313.31;;;-0.72;73.19
76114;BME280;64845;53.086;5.834;2022-11-20T04:09:17;101306.28;;;-0.73;73.05
76114;BME280;64845;53.086;5.834;2022-11-20T04:11:43;101294.00;;;-0.76;73.42
76114;BME280;64845;53.086;5.834;2022-11-20T04:14:15;101298.34;;;-0.78;72.93
76114;BME280;64845;53.086;5.834;2022-11-20T04:16:41;101288.72;;;-0.79;73.06
76114;BME280;64845;53.086;5.834;2022-11-20T04:19:10;101288.75;;;-0.77;73.07
76114;BME280;64845;53.086;5.834;2022-11-20T04:21:36;101284.41;;;-0.73;73.31
76114;BME280;64845;53.086;5.834;2022-11-20T04:24:02;101285.31;;;-0.71;73.50
76114;BME280;64845;53.086;5.834;2022-11-20T04:26:28;101277.50;;;-0.70;73.14
76114;BME280;64845;53.086;5.834;2022-11-20T04:28:55;101275.72;;;-0.71;73.42
76114;BME280;64845;53.086;5.834;2022-11-20T04:31:23;101272.13;;;-0.78;73.18
76114;BME280;64845;53.086;5.834;2022-11-20T04:33:49;101274.72;;;-0.81;73.04
76114;BME280;64845;53.086;5.834;2022-11-20T04:36:26;101277.34;;;-0.81;73.43
76114;BME280;64845;53.086;5.834;2022-11-20T04:38:53;101268.56;;;-0.81;73.44
76114;BME280;64845;53.086;5.834;2022-11-20T04:41:20;101265.09;;;-0.80;73.29
76114;BME280;64845;53.086;5.834;2022-11-20T04:43:47;101267.75;;;-0.79;73.07
76114;BME280;64845;53.086;5.834;2022-11-20T04:46:13;101256.44;;;-0.74;73.54
76114;BME280;64845;53.086;5.834;2022-11-20T04:48:39;101252.94;;;-0.73;73.10
76114;BME280;64845;53.086;5.834;2022-11-20T04:51:05;101261.72;;;-0.73;73.25
76114;BME280;64845;53.086;5.834;2022-11-20T04:53:30;101259.91;;;-0.76;73.53
76114;BME280;64845;53.086;5.834;2022-11-20T04:56:00;101250.28;;;-0.78;73.43
76114;BME280;64845;53.086;5.834;2022-11-20T04:58:26;101251.06;;;-0.82;73.46
76114;BME280;64845;53.086;5.834;2022-11-20T05:00:51;101244.88;;;-0.87;73.28
76114;BME280;64845;53.086;5.834;2022-11-20T05:03:16;101243.16;;;-0.88;73.05
76114;BME280;64845;53.086;5.834;2022-11-20T05:05:42;101252.75;;;-0.87;72.97
76114;BME280;64845;53.086;5.834;2022-11-20T05:08:07;101242.25;;;-0.89;73.56
76114;BME280;64845;53.086;5.834;2022-11-20T05:10:32;101241.38;;;-0.89;73.51
76114;BME280;64845;53.086;5.834;2022-11-20T05:12:58;101245.75;;;-0.88;73.58
76114;BME280;64845;53.086;5.834;2022-11-20T05:15:23;101247.44;;;-0.94;73.42
76114;BME280;64845;53.086;5.834;2022-11-20T05:17:50;101249.88;;;-1.04;73.13
76114;BME280;64845;53.086;5.834;2022-11-20T05:20:16;101260.22;;;-1.14;73.14
76114;BME280;64845;53.086;5.834;2022-11-20T05:22:42;101258.31;;;-1.23;73.08
76114;BME280;64845;53.086;5.834;2022-11-20T05:25:08;101255.63;;;-1.29;73.32
76114;BME280;64845;53.086;5.834;2022-11-20T05:27:33;101256.41;;;-1.33;73.28
76114;BME280;64845;53.086;5.834;2022-11-20T05:29:59;101257.22;;;-1.37;73.20
76114;BME280;64845;53.086;5.834;2022-11-20T05:32:24;101251.13;;;-1.38;73.27
76114;BME280;64845;53.086;5.834;2022-11-20T05:34:53;101250.22;;;-1.37;73.90
76114;BME280;64845;53.086;5.834;2022-11-20T05:37:19;101260.81;;;-1.32;73.63
76114;BME280;64845;53.086;5.834;2022-11-20T05:39:44;101252.09;;;-1.29;73.31
76114;BME280;64845;53.086;5.834;2022-11-20T05:42:09;101253.88;;;-1.28;74.14
76114;BME280;64845;53.086;5.834;2022-11-20T05:44:53;101246.03;;;-1.27;73.63
76114;BME280;64845;53.086;5.834;2022-11-20T05:47:18;101244.31;;;-1.26;73.60
76114;BME280;64845;53.086;5.834;2022-11-20T05:49:44;101245.16;;;-1.26;73.77
76114;BME280;64845;53.086;5.834;2022-11-20T05:52:09;101243.44;;;-1.25;73.46
76114;BME280;64845;53.086;5.834;2022-11-20T05:54:34;101239.06;;;-1.26;73.73
76114;BME280;64845;53.086;5.834;2022-11-20T05:57:00;101233.75;;;-1.31;73.33
76114;BME280;64845;53.086;5.834;2022-11-20T05:59:25;101231.75;;;-1.44;73.28
76114;BME280;64845;53.086;5.834;2022-11-20T06:01:51;101232.44;;;-1.56;73.39
76114;BME280;64845;53.086;5.834;2022-11-20T06:04:16;101237.53;;;-1.64;73.55
76114;BME280;64845;53.086;5.834;2022-11-20T06:06:41;101240.13;;;-1.67;73.52
76114;BME280;64845;53.086;5.834;2022-11-20T06:09:07;101235.75;;;-1.68;73.39
76114;BME280;64845;53.086;5.834;2022-11-20T06:11:32;101236.59;;;-1.69;73.83
76114;BME280;64845;53.086;5.834;2022-11-20T06:13:57;101239.22;;;-1.69;73.67
76114;BME280;64845;53.086;5.834;2022-11-20T06:16:23;101235.66;;;-1.73;73.30
76114;BME280;64845;53.086;5.834;2022-11-20T06:18:48;101241.78;;;-1.72;74.03
76114;BME280;64845;53.086;5.834;2022-11-20T06:21:19;101232.16;;;-1.73;74.03
76114;BME280;64845;53.086;5.834;2022-11-20T06:23:45;101230.44;;;-1.71;73.75
76114;BME280;64845;53.086;5.834;2022-11-20T06:26:13;101226.16;;;-1.66;73.80
76114;BME280;64845;53.086;5.834;2022-11-20T06:28:39;101231.50;;;-1.60;73.95
76114;BME280;64845;53.086;5.834;2022-11-20T06:31:06;101227.25;;;-1.55;73.79
76114;BME280;64845;53.086;5.834;2022-11-20T06:33:31;101228.16;;;-1.51;74.29
76114;BME280;64845;53.086;5.834;2022-11-20T06:35:58;101229.94;;;-1.50;74.04
76114;BME280;64845;53.086;5.834;2022-11-20T06:38:27;101238.72;;;-1.46;74.22
76114;BME280;64845;53.086;5.834;2022-11-20T06:40:53;101232.63;;;-1.45;74.34
76114;BME280;64845;53.086;5.834;2022-11-20T06:43:19;101230.91;;;-1.45;74.38
76114;BME280;64845;53.086;5.834;2022-11-20T06:45:44;101231.81;;;-1.43;74.30
76114;BME280;64845;53.086;5.834;2022-11-20T06:48:09;101230.13;;;-1.39;74.25
76114;BME280;64845;53.086;5.834;2022-11-20T06:50:38;101237.19;;;-1.35;73.89
76114;BME280;64845;53.086;5.834;2022-11-20T06:53:04;101243.31;;;-1.33;74.08
76114;BME280;64845;53.086;5.834;2022-11-20T06:55:31;101234.56;;;-1.33;74.00
76114;BME280;64845;53.086;5.834;2022-11-20T06:57:57;101238.09;;;-1.33;74.06
76114;BME280;64845;53.086;5.834;2022-11-20T07:00:23;101239.84;;;-1.32;74.28
76114;BME280;64845;53.086;5.834;2022-11-20T07:02:48;101237.25;;;-1.30;74.10
76114;BME280;64845;53.086;5.834;2022-11-20T07:05:13;101228.50;;;-1.31;74.44
76114;BME280;64845;53.086;5.834;2022-11-20T07:07:39;101237.22;;;-1.32;74.27
76114;BME280;64845;53.086;5.834;2022-11-20T07:10:04;101237.13;;;-1.37;74.19
76114;BME280;64845;53.086;5.834;2022-11-20T07:12:30;101232.66;;;-1.44;74.07
76114;BME280;64845;53.086;5.834;2022-11-20T07:14:55;101236.97;;;-1.47;74.00
76114;BME280;64845;53.086;5.834;2022-11-20T07:17:21;101232.56;;;-1.50;74.04
76114;BME280;64845;53.086;5.834;2022-11-20T07:19:47;101234.31;;;-1.49;73.87
76114;BME280;64845;53.086;5.834;2022-11-20T07:22:12;101234.38;;;-1.47;74.30
76114;BME280;64845;53.086;5.834;2022-11-20T07:24:38;101229.13;;;-1.47;73.64
76114;BME280;64845;53.086;5.834;2022-11-20T07:27:04;101229.13;;;-1.46;74.13
76114;BME280;64845;53.086;5.834;2022-11-20T07:29:29;101219.56;;;-1.44;73.90
76114;BME280;64845;53.086;5.834;2022-11-20T07:31:55;101227.38;;;-1.45;73.90
76114;BME280;64845;53.086;5.834;2022-11-20T07:34:21;101229.97;;;-1.48;74.28
76114;BME280;64845;53.086;5.834;2022-11-20T07:36:47;101218.53;;;-1.54;74.19
76114;BME280;64845;53.086;5.834;2022-11-20T07:39:15;101225.47;;;-1.56;73.62
76114;BME280;64845;53.086;5.834;2022-11-20T07:41:50;101228.09;;;-1.56;73.92
76114;BME280;64845;53.086;5.834;2022-11-20T07:44:15;101229.00;;;-1.54;73.61
76114;BME280;64845;53.086;5.834;2022-11-20T07:46:40;101224.69;;;-1.50;73.93
76114;BME280;64845;53.086;5.834;2022-11-20T07:49:06;101223.91;;;-1.44;74.10
76114;BME280;64845;53.086;5.834;2022-11-20T07:51:31;101215.25;;;-1.40;74.29
76114;BME280;64845;53.086;5.834;2022-11-20T07:53:56;101219.69;;;-1.34;73.90
76114;BME280;64845;53.086;5.834;2022-11-20T07:56:22;101224.94;;;-1.34;74.25
76114;BME280;64845;53.086;5.834;2022-11-20T07:58:48;101218.84;;;-1.33;73.94
76114;BME280;64845;53.086;5.834;2022-11-20T08:01:13;101218.88;;;-1.32;73.77
76114;BME280;64845;53.086;5.834;2022-11-20T08:03:38;101213.69;;;-1.29;73.70
76114;BME280;64845;53.086;5.834;2022-11-20T08:06:04;101207.59;;;-1.28;74.19
76114;BME280;64845;53.086;5.834;2022-11-20T08:08:30;101213.72;;;-1.26;73.75
76114;BME280;64845;53.086;5.834;2022-11-20T08:10:58;101203.25;;;-1.26;74.05
76114;BME280;64845;53.086;5.834;2022-11-20T08:13:43;101212.88;;;-1.25;73.93
76114;BME280;64845;53.086;5.834;2022-11-20T08:16:26;101202.38;;;-1.25;73.68
76114;BME280;64845;53.086;5.834;2022-11-20T08:18:52;101197.19;;;-1.22;73.58
76114;BME280;64845;53.086;5.834;2022-11-20T08:21:17;101195.50;;;-1.19;73.83
76114;BME280;64845;53.086;5.834;2022-11-20T08:23:42;101193.72;;;-1.20;73.64
76114;BME280;64845;53.086;5.834;2022-11-20T08:26:08;101184.16;;;-1.18;73.82
76114;BME280;64845;53.086;5.834;2022-11-20T08:28:33;101189.44;;;-1.15;73.66
76114;BME280;64845;53.086;5.834;2022-11-20T08:31:00;101190.31;;;-1.15;73.33
76114;BME280;64845;53.086;5.834;2022-11-20T08:33:25;101187.75;;;-1.12;73.83
76114;BME280;64845;53.086;5.834;2022-11-20T08:35:51;101185.16;;;-1.10;73.65
76114;BME280;64845;53.086;5.834;2022-11-20T08:38:16;101185.19;;;-1.07;73.82
76114;BME280;64845;53.086;5.834;2022-11-20T08:40:41;101186.06;;;-1.07;73.64
76114;BME280;64845;53.086;5.834;2022-11-20T08:43:27;101184.38;;;-1.03;73.35
76114;BME280;64845;53.086;5.834;2022-11-20T08:45:52;101187.94;;;-0.99;73.23
76114;BME280;64845;53.086;5.834;2022-11-20T08:48:17;101184.47;;;-0.97;73.23
76114;BME280;64845;53.086;5.834;2022-11-20T08:50:43;101181.03;;;-0.93;73.57
76114;BME280;64845;53.086;5.834;2022-11-20T08:53:08;101173.25;;;-0.86;73.57
76114;BME280;64845;53.086;5.834;2022-11-20T08:55:33;101176.81;;;-0.83;73.13
76114;BME280;64845;53.086;5.834;2022-11-20T08:58:05;101183.84;;;-0.79;73.47
76114;BME280;64845;53.086;5.834;2022-11-20T09:00:31;101180.38;;;-0.74;73.43
76114;BME280;64845;53.086;5.834;2022-11-20T09:02:57;101188.28;;;-0.71;73.31
76114;BME280;64845;53.086;5.834;2022-11-20T09:05:24;101179.63;;;-0.67;73.66
76114;BME280;64845;53.086;5.834;2022-11-20T09:07:49;101181.44;;;-0.62;73.35
76114;BME280;64845;53.086;5.834;2022-11-20T09:10:14;101181.47;;;-0.57;73.51
76114;BME280;64845;53.086;5.834;2022-11-20T09:12:40;101178.97;;;-0.49;73.22
76114;BME280;64845;53.086;5.834;2022-11-20T09:15:05;101179.94;;;-0.42;73.29
76114;BME280;64845;53.086;5.834;2022-11-20T09:17:31;101176.50;;;-0.35;73.35
76114;BME280;64845;53.086;5.834;2022-11-20T09:19:56;101175.72;;;-0.28;73.18
76114;BME280;64845;53.086;5.834;2022-11-20T09:22:22;101174.91;;;-0.22;73.32
76114;BME280;64845;53.086;5.834;2022-11-20T09:24:47;101172.31;;;-0.19;73.20
76114;BME280;64845;53.086;5.834;2022-11-20T09:27:12;101179.31;;;-0.18;73.39
76114;BME280;64845;53.086;5.834;2022-11-20T09:29:38;101176.72;;;-0.15;73.13
76114;BME280;64845;53.086;5.834;2022-11-20T09:32:03;101168.03;;;-0.11;72.99
76114;BME280;64845;53.086;5.834;2022-11-20T09:34:29;101169.78;;;-0.10;73.31
76114;BME280;64845;53.086;5.834;2022-11-20T09:36:54;101170.69;;;-0.05;73.44
76114;BME280;64845;53.086;5.834;2022-11-20T09:39:19;101169.91;;;0.03;73.33
76114;BME280;64845;53.086;5.834;2022-11-20T09:47:07;101156.94;;;0.23;73.27
76114;BME280;64845;53.086;5.834;2022-11-20T09:50:14;101151.75;;;0.29;73.24
76114;BME280;64845;53.086;5.834;2022-11-20T09:53:12;101153.59;;;0.38;73.33
76114;BME280;64845;53.086;5.834;2022-11-20T09:55:39;101151.88;;;0.44;73.04
76114;BME280;64845;53.086;5.834;2022-11-20T09:58:22;101142.28;;;0.48;73.20
76114;BME280;64845;53.086;5.834;2022-11-20T10:00:51;101147.56;;;0.54;72.92
76114;BME280;64845;53.086;5.834;2022-11-20T10:03:24;101156.38;;;0.61;73.13
76114;BME280;64845;53.086;5.834;2022-11-20T10:05:54;101148.53;;;0.67;72.92
76114;BME280;64845;53.086;5.834;2022-11-20T10:08:26;101143.34;;;0.73;72.94
76114;BME280;64845;53.086;5.834;2022-11-20T10:11:03;101149.50;;;0.82;72.88
76114;BME280;64845;53.086;5.834;2022-11-20T10:21:30;101132.16;;;1.12;72.99
76114;BME280;64845;53.086;5.834;2022-11-20T10:26:58;101130.47;;;1.25;72.58
76114;BME280;64845;53.086;5.834;2022-11-20T10:29:36;101128.72;;;1.27;72.78
76114;BME280;64845;53.086;5.834;2022-11-20T10:32:09;101127.00;;;1.33;72.33
76114;BME280;64845;53.086;5.834;2022-11-20T10:34:53;101120.00;;;1.40;72.47
76114;BME280;64845;53.086;5.834;2022-11-20T10:37:26;101121.78;;;1.44;72.34
76114;BME280;64845;53.086;5.834;2022-11-20T10:42:42;101110.38;;;1.55;71.96
76114;BME280;64845;53.086;5.834;2022-11-20T10:47:49;101112.16;;;1.66;71.50
76114;BME280;64845;53.086;5.834;2022-11-20T10:50:19;101111.28;;;1.72;71.44
76114;BME280;64845;53.086;5.834;2022-11-20T10:55:56;101104.31;;;1.76;70.70
76114;BME280;64845;53.086;5.834;2022-11-20T10:58:42;101099.03;;;1.76;70.70
76114;BME280;64845;53.086;5.834;2022-11-20T11:01:18;101103.41;;;1.75;70.57
76114;BME280;64845;53.086;5.834;2022-11-20T11:03:46;101096.41;;;1.76;70.64
76114;BME280;64845;53.086;5.834;2022-11-20T11:06:35;101099.03;;;1.76;69.92
76114;BME280;64845;53.086;5.834;2022-11-20T11:09:09;101088.50;;;1.77;69.85
76114;BME280;64845;53.086;5.834;2022-11-20T11:11:38;101095.53;;;1.78;69.32
76114;BME280;64845;53.086;5.834;2022-11-20T11:14:11;101091.16;;;1.80;69.82
76114;BME280;64845;53.086;5.834;2022-11-20T11:16:56;101081.50;;;1.83;69.53
76114;BME280;64845;53.086;5.834;2022-11-20T11:19:22;101076.22;;;1.84;68.89
76114;BME280;64845;53.086;5.834;2022-11-20T11:21:56;101070.94;;;1.89;68.65
76114;BME280;64845;53.086;5.834;2022-11-20T11:24:24;101062.19;;;1.93;68.79
76114;BME280;64845;53.086;5.834;2022-11-20T11:26:57;101066.56;;;1.97;68.66
76114;BME280;64845;53.086;5.834;2022-11-20T11:29:23;101057.78;;;2.03;69.03
76114;BME280;64845;53.086;5.834;2022-11-20T11:31:49;101058.66;;;2.05;68.28
76114;BME280;64845;53.086;5.834;2022-11-20T11:34:16;101063.06;;;2.09;68.38
76114;BME280;64845;53.086;5.834;2022-11-20T11:36:52;101050.75;;;2.13;68.37
76114;BME280;64845;53.086;5.834;2022-11-20T11:39:20;101046.38;;;2.18;68.16
76114;BME280;64845;53.086;5.834;2022-11-20T11:41:47;101048.13;;;2.20;67.81
76114;BME280;64845;53.086;5.834;2022-11-20T11:47:00;101024.41;;;2.23;67.08
76114;BME280;64845;53.086;5.834;2022-11-20T11:49:25;101025.31;;;2.24;67.31
76114;BME280;64845;53.086;5.834;2022-11-20T11:57:14;101030.56;;;2.22;67.26
76114;BME280;64845;53.086;5.834;2022-11-20T12:00:11;101026.19;;;2.23;66.80
76114;BME280;64845;53.086;5.834;2022-11-20T12:05:29;101033.19;;;2.25;66.71
76114;BME280;64845;53.086;5.834;2022-11-20T12:13:02;101016.50;;;2.30;66.41
76114;BME280;64845;53.086;5.834;2022-11-20T12:15:30;101004.19;;;2.32;66.16
76114;BME280;64845;53.086;5.834;2022-11-20T12:17:56;101009.47;;;2.33;66.11
76114;BME280;64845;53.086;5.834;2022-11-20T12:20:26;101000.66;;;2.34;66.35
76114;BME280;64845;53.086;5.834;2022-11-20T12:23:06;100988.38;;;2.33;66.41
76114;BME280;64845;53.086;5.834;2022-11-20T12:25:35;100995.41;;;2.37;66.31
76114;BME280;64845;53.086;5.834;2022-11-20T12:36:30;100976.94;;;2.42;65.65
76114;BME280;64845;53.086;5.834;2022-11-20T12:45:07;100954.09;;;2.44;65.82
76114;BME280;64845;53.086;5.834;2022-11-20T12:48:03;100951.44;;;2.46;65.58
76114;BME280;64845;53.086;5.834;2022-11-20T12:53:05;100954.06;;;2.49;65.59
76114;BME280;64845;53.086;5.834;2022-11-20T12:55:50;100947.91;;;2.50;65.78
76114;BME280;64845;53.086;5.834;2022-11-20T12:58:31;100947.03;;;2.49;66.13
76114;BME280;64845;53.086;5.834;2022-11-20T13:07:06;100933.84;;;2.52;65.66
76114;BME280;64845;53.086;5.834;2022-11-20T13:09:33;100924.19;;;2.53;65.52
76114;BME280;64845;53.086;5.834;2022-11-20T13:12:18;100921.56;;;2.51;64.88
76114;BME280;64845;53.086;5.834;2022-11-20T13:14:53;100921.53;;;2.50;65.43
76114;BME280;64845;53.086;5.834;2022-11-20T13:17:34;100909.25;;;2.50;65.46
76114;BME280;64845;53.086;5.834;2022-11-20T13:20:05;100905.75;;;2.48;65.25
76114;BME280;64845;53.086;5.834;2022-11-20T13:22:51;100897.00;;;2.45;64.83
76114;BME280;64845;53.086;5.834;2022-11-20T13:25:34;100892.59;;;2.42;65.04
76114;BME280;64845;53.086;5.834;2022-11-20T13:28:03;100883.81;;;2.40;65.13
76114;BME280;64845;53.086;5.834;2022-11-20T13:30:30;100881.19;;;2.37;64.88
76114;BME280;64845;53.086;5.834;2022-11-20T13:35:30;100869.78;;;2.33;64.80
76114;BME280;64845;53.086;5.834;2022-11-20T13:40:29;100870.66;;;2.35;65.07
76114;BME280;64845;53.086;5.834;2022-11-20T13:43:14;100868.91;;;2.34;64.91
76114;BME280;64845;53.086;5.834;2022-11-20T13:45:41;100861.00;;;2.34;65.12
76114;BME280;64845;53.086;5.834;2022-11-20T13:48:24;100850.47;;;2.31;64.88
76114;BME280;64845;53.086;5.834;2022-11-20T13:56:14;100839.06;;;2.29;65.40
76114;BME280;64845;53.086;5.834;2022-11-20T14:01:33;100829.44;;;2.26;65.68
76114;BME280;64845;53.086;5.834;2022-11-20T14:04:05;100821.53;;;2.26;65.07
76114;BME280;64845;53.086;5.834;2022-11-20T14:06:38;100811.88;;;2.25;65.36
76114;BME280;64845;53.086;5.834;2022-11-20T14:09:04;100808.38;;;2.25;65.04
76114;BME280;64845;53.086;5.834;2022-11-20T14:11:30;100817.13;;;2.25;65.06
76114;BME280;64845;53.086;5.834;2022-11-20T14:16:32;100814.53;;;2.24;65.13
76114;BME280;64845;53.086;5.834;2022-11-20T14:21:46;100800.47;;;2.25;65.39
76114;BME280;64845;53.086;5.834;2022-11-20T14:24:13;100794.31;;;2.24;65.45
76114;BME280;64845;53.086;5.834;2022-11-20T14:26:43;100789.94;;;2.25;65.47